sensor_id;sensor_type;location;lat;lon;timestamp;temperature;humidity
18337;DHT22;9294;51.106;7.028;2023-02-15T00:01:55;19.60;76.70
18337;DHT22;9294;51.106;7.028;2023-02-15T00:04:24;19.60;76.80
18337;DHT22;9294;51.106;7.028;2023-02-15T00:07:16;19.60;76.80
18337;DHT22;9294;51.106;7.028;2023-02-15T00:09:43;19.60;76.80
18337;DHT22;9294;51.106;7.028;2023-02-15T00:12:11;19.60;76.60
18337;DHT22;9294;51.106;7.028;2023-02-15T00:14:37;19.50;76.50
18337;DHT22;9294;51.106;7.028;2023-02-15T00:17:04;19.50;76.40
18337;DHT22;9294;51.106;7.028;2023-02-15T00:19:31;19.50;76.50
18337;DHT22;9294;51.106;7.028;2023-02-15T00:21:58;19.50;76.30
18337;DHT22;9294;51.106;7.028;2023-02-15T00:24:26;19.50;76.40
18337;DHT22;9294;51.106;7.028;2023-02-15T00:26:53;19.50;76.40
18337;DHT22;9294;51.106;7.028;2023-02-15T00:29:20;19.50;76.20
18337;DHT22;9294;51.106;7.028;2023-02-15T00:31:46;19.50;76.20
18337;DHT22;9294;51.106;7.028;2023-02-15T00:34:15;19.50;76.10
18337;DHT22;9294;51.106;7.028;2023-02-15T00:36:42;19.50;76.20
18337;DHT22;9294;51.106;7.028;2023-02-15T00:39:09;19.50;76.20
18337;DHT22;9294;51.106;7.028;2023-02-15T00:41:37;19.50;76.10
18337;DHT22;9294;51.106;7.028;2023-02-15T00:44:04;19.40;76.00
18337;DHT22;9294;51.106;7.028;2023-02-15T00:46:31;19.50;76.00
18337;DHT22;9294;51.106;7.028;2023-02-15T00:48:58;19.40;75.90
18337;DHT22;9294;51.106;7.028;2023-02-15T00:51:25;19.40;75.80
18337;DHT22;9294;51.106;7.028;2023-02-15T00:53:52;19.40;75.90
18337;DHT22;9294;51.106;7.028;2023-02-15T00:56:18;19.40;75.90
18337;DHT22;9294;51.106;7.028;2023-02-15T00:58:46;19.40;75.80
18337;DHT22;9294;51.106;7.028;2023-02-15T01:01:15;19.40;76.60
18337;DHT22;9294;51.106;7.028;2023-02-15T01:03:42;19.40;75.70
18337;DHT22;9294;51.106;7.028;2023-02-15T01:06:10;19.40;75.80
18337;DHT22;9294;51.106;7.028;2023-02-15T01:08:37;19.30;75.50
18337;DHT22;9294;51.106;7.028;2023-02-15T01:11:05;19.30;75.50
18337;DHT22;9294;51.106;7.028;2023-02-15T01:13:32;19.30;75.50
18337;DHT22;9294;51.106;7.028;2023-02-15T01:16:00;19.30;75.50
18337;DHT22;9294;51.106;7.028;2023-02-15T01:18:27;19.30;75.40
18337;DHT22;9294;51.106;7.028;2023-02-15T01:20:54;19.30;75.30
18337;DHT22;9294;51.106;7.028;2023-02-15T01:23:20;19.30;75.40
18337;DHT22;9294;51.106;7.028;2023-02-15T01:25:47;19.30;75.30
18337;DHT22;9294;51.106;7.028;2023-02-15T01:28:14;19.20;75.20
18337;DHT22;9294;51.106;7.028;2023-02-15T01:30:41;19.20;75.20
18337;DHT22;9294;51.106;7.028;2023-02-15T01:33:09;19.20;75.20
18337;DHT22;9294;51.106;7.028;2023-02-15T01:35:43;19.20;75.10
18337;DHT22;9294;51.106;7.028;2023-02-15T01:38:10;19.20;75.10
18337;DHT22;9294;51.106;7.028;2023-02-15T01:40:36;19.20;75.10
18337;DHT22;9294;51.106;7.028;2023-02-15T01:43:10;19.20;75.10
18337;DHT22;9294;51.106;7.028;2023-02-15T01:45:37;19.10;75.00
18337;DHT22;9294;51.106;7.028;2023-02-15T01:48:08;19.10;75.00
18337;DHT22;9294;51.106;7.028;2023-02-15T01:50:44;19.10;74.90
18337;DHT22;9294;51.106;7.028;2023-02-15T01:53:16;19.10;74.90
18337;DHT22;9294;51.106;7.028;2023-02-15T01:55:47;19.10;74.80
18337;DHT22;9294;51.106;7.028;2023-02-15T01:58:15;19.20;75.00
18337;DHT22;9294;51.106;7.028;2023-02-15T02:00:43;19.10;75.00
18337;DHT22;9294;51.106;7.028;2023-02-15T02:03:11;19.10;75.80
18337;DHT22;9294;51.106;7.028;2023-02-15T02:05:40;19.10;75.00
18337;DHT22;9294;51.106;7.028;2023-02-15T02:08:07;19.10;75.00
18337;DHT22;9294;51.106;7.028;2023-02-15T02:10:35;19.00;74.90
18337;DHT22;9294;51.106;7.028;2023-02-15T02:13:03;19.00;74.90
18337;DHT22;9294;51.106;7.028;2023-02-15T02:15:40;19.00;75.10
18337;DHT22;9294;51.106;7.028;2023-02-15T02:18:21;19.00;74.90
18337;DHT22;9294;51.106;7.028;2023-02-15T02:21:17;19.00;74.80
18337;DHT22;9294;51.106;7.028;2023-02-15T02:24:14;19.00;74.70
18337;DHT22;9294;51.106;7.028;2023-02-15T02:27:10;19.10;74.90
18337;DHT22;9294;51.106;7.028;2023-02-15T02:30:02;19.00;74.70
18337;DHT22;9294;51.106;7.028;2023-02-15T02:32:53;19.00;74.60
18337;DHT22;9294;51.106;7.028;2023-02-15T02:35:33;19.00;74.70
18337;DHT22;9294;51.106;7.028;2023-02-15T02:38:08;19.00;74.60
18337;DHT22;9294;51.106;7.028;2023-02-15T02:40:46;19.00;74.60
18337;DHT22;9294;51.106;7.028;2023-02-15T02:43:19;19.00;74.70
18337;DHT22;9294;51.106;7.028;2023-02-15T02:45:52;19.00;74.60
18337;DHT22;9294;51.106;7.028;2023-02-15T02:48:24;19.00;74.50
18337;DHT22;9294;51.106;7.028;2023-02-15T02:50:53;19.00;74.50
18337;DHT22;9294;51.106;7.028;2023-02-15T02:53:19;19.00;74.40
18337;DHT22;9294;51.106;7.028;2023-02-15T02:55:48;19.00;74.30
18337;DHT22;9294;51.106;7.028;2023-02-15T02:58:19;19.00;74.30
18337;DHT22;9294;51.106;7.028;2023-02-15T03:00:50;19.00;74.20
18337;DHT22;9294;51.106;7.028;2023-02-15T03:03:21;19.00;74.20
18337;DHT22;9294;51.106;7.028;2023-02-15T03:05:54;19.00;74.10
18337;DHT22;9294;51.106;7.028;2023-02-15T03:08:26;19.00;74.10
18337;DHT22;9294;51.106;7.028;2023-02-15T03:10:57;19.00;74.00
18337;DHT22;9294;51.106;7.028;2023-02-15T03:13:24;19.00;74.00
18337;DHT22;9294;51.106;7.028;2023-02-15T03:15:52;19.00;74.00
18337;DHT22;9294;51.106;7.028;2023-02-15T03:18:41;19.00;73.90
18337;DHT22;9294;51.106;7.028;2023-02-15T03:21:11;18.90;73.90
18337;DHT22;9294;51.106;7.028;2023-02-15T03:23:50;18.90;73.80
18337;DHT22;9294;51.106;7.028;2023-02-15T03:26:20;18.90;73.80
18337;DHT22;9294;51.106;7.028;2023-02-15T03:28:49;18.90;73.80
18337;DHT22;9294;51.106;7.028;2023-02-15T03:31:20;18.90;73.80
18337;DHT22;9294;51.106;7.028;2023-02-15T03:33:54;18.90;73.70
18337;DHT22;9294;51.106;7.028;2023-02-15T03:36:28;18.90;73.80
18337;DHT22;9294;51.106;7.028;2023-02-15T03:39:02;18.80;73.60
18337;DHT22;9294;51.106;7.028;2023-02-15T03:41:35;18.90;73.70
18337;DHT22;9294;51.106;7.028;2023-02-15T03:44:05;18.80;73.70
18337;DHT22;9294;51.106;7.028;2023-02-15T03:46:39;18.90;73.70
18337;DHT22;9294;51.106;7.028;2023-02-15T03:49:09;18.80;73.60
18337;DHT22;9294;51.106;7.028;2023-02-15T03:51:40;18.80;73.50
18337;DHT22;9294;51.106;7.028;2023-02-15T03:54:10;18.80;73.50
18337;DHT22;9294;51.106;7.028;2023-02-15T03:56:40;18.80;73.50
18337;DHT22;9294;51.106;7.028;2023-02-15T03:59:28;18.80;73.50
18337;DHT22;9294;51.106;7.028;2023-02-15T04:02:18;18.80;73.60
18337;DHT22;9294;51.106;7.028;2023-02-15T04:04:47;18.80;73.50
18337;DHT22;9294;51.106;7.028;2023-02-15T04:07:15;18.70;74.20
18337;DHT22;9294;51.106;7.028;2023-02-15T04:09:42;18.70;73.40
18337;DHT22;9294;51.106;7.028;2023-02-15T04:12:26;18.70;73.50
18337;DHT22;9294;51.106;7.028;2023-02-15T04:14:52;18.70;73.50
18337;DHT22;9294;51.106;7.028;2023-02-15T04:17:37;18.70;73.50
18337;DHT22;9294;51.106;7.028;2023-02-15T04:20:05;18.70;73.50
18337;DHT22;9294;51.106;7.028;2023-02-15T04:22:52;18.70;73.50
18337;DHT22;9294;51.106;7.028;2023-02-15T04:25:36;18.60;73.50
18337;DHT22;9294;51.106;7.028;2023-02-15T04:28:03;18.60;73.50
18337;DHT22;9294;51.106;7.028;2023-02-15T04:30:30;18.60;73.50
18337;DHT22;9294;51.106;7.028;2023-02-15T04:32:56;18.60;73.50
18337;DHT22;9294;51.106;7.028;2023-02-15T04:35:23;18.60;73.50
18337;DHT22;9294;51.106;7.028;2023-02-15T04:37:52;18.60;73.50
18337;DHT22;9294;51.106;7.028;2023-02-15T04:40:19;18.60;73.50
18337;DHT22;9294;51.106;7.028;2023-02-15T04:42:47;18.60;73.80
18337;DHT22;9294;51.106;7.028;2023-02-15T04:45:14;18.60;73.90
18337;DHT22;9294;51.106;7.028;2023-02-15T04:47:41;18.60;74.00
18337;DHT22;9294;51.106;7.028;2023-02-15T04:50:08;18.60;74.00
18337;DHT22;9294;51.106;7.028;2023-02-15T04:52:35;18.70;73.90
18337;DHT22;9294;51.106;7.028;2023-02-15T04:55:04;18.80;73.70
18337;DHT22;9294;51.106;7.028;2023-02-15T04:57:30;18.80;73.60
18337;DHT22;9294;51.106;7.028;2023-02-15T04:59:57;18.80;73.90
18337;DHT22;9294;51.106;7.028;2023-02-15T05:02:24;18.90;74.80
18337;DHT22;9294;51.106;7.028;2023-02-15T05:04:51;19.00;74.40
18337;DHT22;9294;51.106;7.028;2023-02-15T05:07:17;19.10;74.30
18337;DHT22;9294;51.106;7.028;2023-02-15T05:09:45;19.10;74.30
18337;DHT22;9294;51.106;7.028;2023-02-15T05:12:13;19.20;74.20
18337;DHT22;9294;51.106;7.028;2023-02-15T05:14:40;19.20;74.10
18337;DHT22;9294;51.106;7.028;2023-02-15T05:17:07;19.20;74.10
18337;DHT22;9294;51.106;7.028;2023-02-15T05:19:33;19.30;74.20
18337;DHT22;9294;51.106;7.028;2023-02-15T05:22:00;19.30;74.00
18337;DHT22;9294;51.106;7.028;2023-02-15T05:24:27;19.40;74.10
18337;DHT22;9294;51.106;7.028;2023-02-15T05:27:13;19.40;74.10
18337;DHT22;9294;51.106;7.028;2023-02-15T05:29:58;19.40;74.10
18337;DHT22;9294;51.106;7.028;2023-02-15T05:32:24;19.50;73.90
18337;DHT22;9294;51.106;7.028;2023-02-15T05:34:51;19.50;73.90
18337;DHT22;9294;51.106;7.028;2023-02-15T05:37:18;19.50;73.90
18337;DHT22;9294;51.106;7.028;2023-02-15T05:39:44;19.50;73.90
18337;DHT22;9294;51.106;7.028;2023-02-15T05:42:11;19.50;73.90
18337;DHT22;9294;51.106;7.028;2023-02-15T05:44:39;19.60;74.00
18337;DHT22;9294;51.106;7.028;2023-02-15T05:47:06;19.60;74.00
18337;DHT22;9294;51.106;7.028;2023-02-15T05:49:33;19.60;74.00
18337;DHT22;9294;51.106;7.028;2023-02-15T05:52:00;19.60;74.00
18337;DHT22;9294;51.106;7.028;2023-02-15T05:54:27;19.60;74.00
18337;DHT22;9294;51.106;7.028;2023-02-15T05:56:54;19.60;74.00
18337;DHT22;9294;51.106;7.028;2023-02-15T05:59:21;19.60;74.00
18337;DHT22;9294;51.106;7.028;2023-02-15T06:01:49;19.60;74.00
18337;DHT22;9294;51.106;7.028;2023-02-15T06:04:16;19.60;74.00
18337;DHT22;9294;51.106;7.028;2023-02-15T06:06:43;19.60;74.00
18337;DHT22;9294;51.106;7.028;2023-02-15T06:09:10;19.60;74.00
18337;DHT22;9294;51.106;7.028;2023-02-15T06:11:37;19.60;74.00
18337;DHT22;9294;51.106;7.028;2023-02-15T06:14:04;19.60;74.00
18337;DHT22;9294;51.106;7.028;2023-02-15T06:16:31;19.60;74.10
18337;DHT22;9294;51.106;7.028;2023-02-15T06:18:59;19.60;73.90
18337;DHT22;9294;51.106;7.028;2023-02-15T06:21:27;19.60;74.20
18337;DHT22;9294;51.106;7.028;2023-02-15T06:23:53;19.60;75.60
18337;DHT22;9294;51.106;7.028;2023-02-15T06:26:20;19.60;75.20
18337;DHT22;9294;51.106;7.028;2023-02-15T06:28:47;19.50;74.90
18337;DHT22;9294;51.106;7.028;2023-02-15T06:31:14;19.50;74.70
18337;DHT22;9294;51.106;7.028;2023-02-15T06:33:40;19.50;74.50
18337;DHT22;9294;51.106;7.028;2023-02-15T06:36:08;19.50;74.50
18337;DHT22;9294;51.106;7.028;2023-02-15T06:38:35;19.50;74.50
18337;DHT22;9294;51.106;7.028;2023-02-15T06:41:02;19.50;74.50
18337;DHT22;9294;51.106;7.028;2023-02-15T06:43:29;19.50;74.40
18337;DHT22;9294;51.106;7.028;2023-02-15T06:45:55;19.50;74.40
18337;DHT22;9294;51.106;7.028;2023-02-15T06:48:22;19.50;74.40
18337;DHT22;9294;51.106;7.028;2023-02-15T06:50:49;19.50;74.40
18337;DHT22;9294;51.106;7.028;2023-02-15T06:53:17;19.50;74.40
18337;DHT22;9294;51.106;7.028;2023-02-15T06:55:44;19.60;74.50
18337;DHT22;9294;51.106;7.028;2023-02-15T06:58:10;19.50;74.40
18337;DHT22;9294;51.106;7.028;2023-02-15T07:00:37;19.50;74.30
18337;DHT22;9294;51.106;7.028;2023-02-15T07:03:04;19.60;74.30
18337;DHT22;9294;51.106;7.028;2023-02-15T07:05:33;19.50;74.20
18337;DHT22;9294;51.106;7.028;2023-02-15T07:08:00;19.50;74.20
18337;DHT22;9294;51.106;7.028;2023-02-15T07:10:28;19.50;74.40
18337;DHT22;9294;51.106;7.028;2023-02-15T07:12:55;19.60;74.50
18337;DHT22;9294;51.106;7.028;2023-02-15T07:15:21;19.60;74.20
18337;DHT22;9294;51.106;7.028;2023-02-15T07:17:48;19.60;73.70
18337;DHT22;9294;51.106;7.028;2023-02-15T07:20:17;19.70;73.20
18337;DHT22;9294;51.106;7.028;2023-02-15T07:22:44;19.60;72.50
18337;DHT22;9294;51.106;7.028;2023-02-15T07:25:11;19.70;72.40
18337;DHT22;9294;51.106;7.028;2023-02-15T07:27:40;19.70;72.30
18337;DHT22;9294;51.106;7.028;2023-02-15T07:30:09;19.80;72.20
18337;DHT22;9294;51.106;7.028;2023-02-15T07:32:36;19.70;71.70
18337;DHT22;9294;51.106;7.028;2023-02-15T07:35:22;19.70;71.50
18337;DHT22;9294;51.106;7.028;2023-02-15T07:37:49;19.80;71.70
18337;DHT22;9294;51.106;7.028;2023-02-15T07:40:16;19.80;71.00
18337;DHT22;9294;51.106;7.028;2023-02-15T07:42:44;19.80;71.00
18337;DHT22;9294;51.106;7.028;2023-02-15T07:45:10;19.80;71.90
18337;DHT22;9294;51.106;7.028;2023-02-15T07:47:37;19.80;70.50
18337;DHT22;9294;51.106;7.028;2023-02-15T07:50:05;19.80;70.60
18337;DHT22;9294;51.106;7.028;2023-02-15T07:52:32;19.80;70.30
18337;DHT22;9294;51.106;7.028;2023-02-15T07:54:59;19.80;69.90
18337;DHT22;9294;51.106;7.028;2023-02-15T07:57:25;19.80;70.00
18337;DHT22;9294;51.106;7.028;2023-02-15T07:59:53;19.80;70.30
18337;DHT22;9294;51.106;7.028;2023-02-15T08:02:20;19.80;69.80
18337;DHT22;9294;51.106;7.028;2023-02-15T08:04:47;19.70;70.50
18337;DHT22;9294;51.106;7.028;2023-02-15T08:07:13;19.70;69.80
18337;DHT22;9294;51.106;7.028;2023-02-15T08:09:40;19.70;69.80
18337;DHT22;9294;51.106;7.028;2023-02-15T08:12:07;19.70;69.30
18337;DHT22;9294;51.106;7.028;2023-02-15T08:14:33;19.80;69.50
18337;DHT22;9294;51.106;7.028;2023-02-15T08:17:01;19.70;69.00
18337;DHT22;9294;51.106;7.028;2023-02-15T08:19:31;19.70;69.50
18337;DHT22;9294;51.106;7.028;2023-02-15T08:22:01;19.70;69.30
18337;DHT22;9294;51.106;7.028;2023-02-15T08:24:30;19.70;70.20
18337;DHT22;9294;51.106;7.028;2023-02-15T08:26:57;19.70;69.30
18337;DHT22;9294;51.106;7.028;2023-02-15T08:29:26;19.70;69.20
18337;DHT22;9294;51.106;7.028;2023-02-15T08:31:54;19.70;69.80
18337;DHT22;9294;51.106;7.028;2023-02-15T08:34:25;19.70;69.90
18337;DHT22;9294;51.106;7.028;2023-02-15T08:36:51;19.70;70.90
18337;DHT22;9294;51.106;7.028;2023-02-15T08:39:18;19.80;70.50
18337;DHT22;9294;51.106;7.028;2023-02-15T08:41:46;19.80;70.10
18337;DHT22;9294;51.106;7.028;2023-02-15T08:44:14;19.80;70.10
18337;DHT22;9294;51.106;7.028;2023-02-15T08:46:43;19.80;70.20
18337;DHT22;9294;51.106;7.028;2023-02-15T08:49:12;19.90;70.00
18337;DHT22;9294;51.106;7.028;2023-02-15T08:51:41;19.90;69.70
18337;DHT22;9294;51.106;7.028;2023-02-15T08:54:09;19.90;69.70
18337;DHT22;9294;51.106;7.028;2023-02-15T08:56:38;19.90;69.90
18337;DHT22;9294;51.106;7.028;2023-02-15T08:59:06;19.90;69.50
18337;DHT22;9294;51.106;7.028;2023-02-15T09:01:34;19.80;69.80
18337;DHT22;9294;51.106;7.028;2023-02-15T09:04:03;19.80;70.00
18337;DHT22;9294;51.106;7.028;2023-02-15T09:06:30;19.80;69.90
18337;DHT22;9294;51.106;7.028;2023-02-15T09:08:58;19.80;70.70
18337;DHT22;9294;51.106;7.028;2023-02-15T09:11:27;19.90;70.50
18337;DHT22;9294;51.106;7.028;2023-02-15T09:13:55;19.90;70.50
18337;DHT22;9294;51.106;7.028;2023-02-15T09:16:23;19.90;70.80
18337;DHT22;9294;51.106;7.028;2023-02-15T09:18:51;19.90;71.10
18337;DHT22;9294;51.106;7.028;2023-02-15T09:21:20;19.90;71.10
18337;DHT22;9294;51.106;7.028;2023-02-15T09:23:49;19.90;71.10
18337;DHT22;9294;51.106;7.028;2023-02-15T09:26:19;20.00;71.20
18337;DHT22;9294;51.106;7.028;2023-02-15T09:28:47;19.90;72.10
18337;DHT22;9294;51.106;7.028;2023-02-15T09:31:16;19.90;72.40
18337;DHT22;9294;51.106;7.028;2023-02-15T09:33:44;20.00;72.60
18337;DHT22;9294;51.106;7.028;2023-02-15T09:36:15;20.00;72.40
18337;DHT22;9294;51.106;7.028;2023-02-15T09:38:42;20.00;73.00
18337;DHT22;9294;51.106;7.028;2023-02-15T09:41:24;20.00;72.60
18337;DHT22;9294;51.106;7.028;2023-02-15T09:43:59;20.00;72.80
18337;DHT22;9294;51.106;7.028;2023-02-15T09:46:39;20.00;72.70
18337;DHT22;9294;51.106;7.028;2023-02-15T09:49:17;20.00;72.80
18337;DHT22;9294;51.106;7.028;2023-02-15T09:52:01;19.60;72.50
18337;DHT22;9294;51.106;7.028;2023-02-15T09:54:42;20.10;72.70
18337;DHT22;9294;51.106;7.028;2023-02-15T09:57:21;20.10;72.60
18337;DHT22;9294;51.106;7.028;2023-02-15T10:00:01;20.10;72.50
18337;DHT22;9294;51.106;7.028;2023-02-15T10:02:44;20.10;72.00
18337;DHT22;9294;51.106;7.028;2023-02-15T10:05:23;20.10;72.40
18337;DHT22;9294;51.106;7.028;2023-02-15T10:08:11;20.20;72.10
18337;DHT22;9294;51.106;7.028;2023-02-15T10:10:44;20.10;72.00
18337;DHT22;9294;51.106;7.028;2023-02-15T10:13:24;20.10;71.90
18337;DHT22;9294;51.106;7.028;2023-02-15T10:16:06;20.10;72.10
18337;DHT22;9294;51.106;7.028;2023-02-15T10:18:49;20.10;71.90
18337;DHT22;9294;51.106;7.028;2023-02-15T10:21:27;20.10;71.80
18337;DHT22;9294;51.106;7.028;2023-02-15T10:24:18;20.10;72.10
18337;DHT22;9294;51.106;7.028;2023-02-15T10:26:49;20.10;72.30
18337;DHT22;9294;51.106;7.028;2023-02-15T10:29:26;20.10;71.40
18337;DHT22;9294;51.106;7.028;2023-02-15T10:32:02;20.10;72.00
18337;DHT22;9294;51.106;7.028;2023-02-15T10:34:37;20.00;71.50
18337;DHT22;9294;51.106;7.028;2023-02-15T10:40:22;20.00;71.60
18337;DHT22;9294;51.106;7.028;2023-02-15T10:43:05;20.00;71.90
18337;DHT22;9294;51.106;7.028;2023-02-15T10:45:43;20.00;72.00
18337;DHT22;9294;51.106;7.028;2023-02-15T10:48:34;20.00;72.30
18337;DHT22;9294;51.106;7.028;2023-02-15T10:51:08;20.00;72.60
18337;DHT22;9294;51.106;7.028;2023-02-15T10:54:06;20.00;72.60
18337;DHT22;9294;51.106;7.028;2023-02-15T10:56:38;20.00;72.60
18337;DHT22;9294;51.106;7.028;2023-02-15T10:59:26;20.00;72.70
18337;DHT22;9294;51.106;7.028;2023-02-15T11:02:01;20.10;72.70
18337;DHT22;9294;51.106;7.028;2023-02-15T11:04:44;20.10;72.80
18337;DHT22;9294;51.106;7.028;2023-02-15T11:07:16;20.10;72.80
18337;DHT22;9294;51.106;7.028;2023-02-15T11:09:47;20.10;72.80
18337;DHT22;9294;51.106;7.028;2023-02-15T11:12:18;20.10;72.90
18337;DHT22;9294;51.106;7.028;2023-02-15T11:14:50;20.10;73.00
18337;DHT22;9294;51.106;7.028;2023-02-15T11:17:24;20.10;73.10
18337;DHT22;9294;51.106;7.028;2023-02-15T11:19:58;20.10;73.30
18337;DHT22;9294;51.106;7.028;2023-02-15T11:22:29;20.10;73.40
18337;DHT22;9294;51.106;7.028;2023-02-15T11:24:58;20.10;73.30
18337;DHT22;9294;51.106;7.028;2023-02-15T11:27:27;20.10;73.50
18337;DHT22;9294;51.106;7.028;2023-02-15T11:29:59;20.10;73.60
18337;DHT22;9294;51.106;7.028;2023-02-15T11:32:30;20.10;73.50
18337;DHT22;9294;51.106;7.028;2023-02-15T11:35:01;20.10;73.60
18337;DHT22;9294;51.106;7.028;2023-02-15T11:37:35;20.10;73.60
18337;DHT22;9294;51.106;7.028;2023-02-15T11:40:15;20.00;73.80
18337;DHT22;9294;51.106;7.028;2023-02-15T11:42:45;20.10;74.20
18337;DHT22;9294;51.106;7.028;2023-02-15T11:45:19;20.10;74.40
18337;DHT22;9294;51.106;7.028;2023-02-15T11:47:49;20.10;74.40
18337;DHT22;9294;51.106;7.028;2023-02-15T11:50:21;20.10;74.50
18337;DHT22;9294;51.106;7.028;2023-02-15T11:52:49;20.10;74.60
18337;DHT22;9294;51.106;7.028;2023-02-15T11:55:20;20.20;74.40
18337;DHT22;9294;51.106;7.028;2023-02-15T11:57:50;20.20;73.70
18337;DHT22;9294;51.106;7.028;2023-02-15T12:00:27;20.20;71.80
18337;DHT22;9294;51.106;7.028;2023-02-15T12:03:07;20.10;72.90
18337;DHT22;9294;51.106;7.028;2023-02-15T12:05:40;20.00;73.00
18337;DHT22;9294;51.106;7.028;2023-02-15T12:08:15;20.00;73.00
18337;DHT22;9294;51.106;7.028;2023-02-15T12:10:52;20.00;73.00
18337;DHT22;9294;51.106;7.028;2023-02-15T12:13:20;20.00;72.90
18337;DHT22;9294;51.106;7.028;2023-02-15T12:15:49;19.90;72.80
18337;DHT22;9294;51.106;7.028;2023-02-15T12:18:33;19.90;72.80
18337;DHT22;9294;51.106;7.028;2023-02-15T12:21:03;19.90;72.90
18337;DHT22;9294;51.106;7.028;2023-02-15T12:23:32;19.90;73.00
18337;DHT22;9294;51.106;7.028;2023-02-15T12:25:59;19.90;72.90
18337;DHT22;9294;51.106;7.028;2023-02-15T12:28:32;19.90;73.00
18337;DHT22;9294;51.106;7.028;2023-02-15T12:31:03;19.90;73.00
18337;DHT22;9294;51.106;7.028;2023-02-15T12:33:35;19.90;73.10
18337;DHT22;9294;51.106;7.028;2023-02-15T12:36:10;19.90;72.90
18337;DHT22;9294;51.106;7.028;2023-02-15T12:38:38;19.90;73.20
18337;DHT22;9294;51.106;7.028;2023-02-15T12:41:22;19.90;73.20
18337;DHT22;9294;51.106;7.028;2023-02-15T12:44:03;19.90;73.30
18337;DHT22;9294;51.106;7.028;2023-02-15T12:46:30;19.90;73.20
18337;DHT22;9294;51.106;7.028;2023-02-15T12:49:17;19.80;73.30
18337;DHT22;9294;51.106;7.028;2023-02-15T12:51:49;19.80;73.50
18337;DHT22;9294;51.106;7.028;2023-02-15T12:54:20;19.80;73.70
18337;DHT22;9294;51.106;7.028;2023-02-15T12:56:52;19.80;73.50
18337;DHT22;9294;51.106;7.028;2023-02-15T12:59:19;19.80;73.80
18337;DHT22;9294;51.106;7.028;2023-02-15T13:01:47;19.70;74.10
18337;DHT22;9294;51.106;7.028;2023-02-15T13:04:21;19.70;74.10
18337;DHT22;9294;51.106;7.028;2023-02-15T13:06:50;19.70;74.10
18337;DHT22;9294;51.106;7.028;2023-02-15T13:09:20;19.70;74.40
18337;DHT22;9294;51.106;7.028;2023-02-15T13:11:47;19.80;74.70
18337;DHT22;9294;51.106;7.028;2023-02-15T13:14:19;19.80;74.80
18337;DHT22;9294;51.106;7.028;2023-02-15T13:16:49;19.90;75.30
18337;DHT22;9294;51.106;7.028;2023-02-15T13:19:20;19.90;75.40
18337;DHT22;9294;51.106;7.028;2023-02-15T13:21:51;19.90;75.80
18337;DHT22;9294;51.106;7.028;2023-02-15T13:24:22;19.90;75.60
18337;DHT22;9294;51.106;7.028;2023-02-15T13:26:49;19.90;75.40
18337;DHT22;9294;51.106;7.028;2023-02-15T13:29:21;19.80;76.00
18337;DHT22;9294;51.106;7.028;2023-02-15T13:31:50;19.80;76.00
18337;DHT22;9294;51.106;7.028;2023-02-15T13:34:22;19.80;75.30
18337;DHT22;9294;51.106;7.028;2023-02-15T13:36:57;19.80;75.30
18337;DHT22;9294;51.106;7.028;2023-02-15T13:39:27;19.80;75.30
18337;DHT22;9294;51.106;7.028;2023-02-15T13:42:00;19.80;75.30
18337;DHT22;9294;51.106;7.028;2023-02-15T13:45:00;19.80;75.30
18337;DHT22;9294;51.106;7.028;2023-02-15T13:47:34;19.80;75.30
18337;DHT22;9294;51.106;7.028;2023-02-15T13:50:28;19.80;75.40
18337;DHT22;9294;51.106;7.028;2023-02-15T13:53:14;19.70;75.20
18337;DHT22;9294;51.106;7.028;2023-02-15T13:55:48;19.80;75.30
18337;DHT22;9294;51.106;7.028;2023-02-15T14:01:36;19.80;75.30
18337;DHT22;9294;51.106;7.028;2023-02-15T14:04:37;19.80;75.50
18337;DHT22;9294;51.106;7.028;2023-02-15T14:07:29;19.80;75.40
18337;DHT22;9294;51.106;7.028;2023-02-15T14:10:06;19.80;75.50
18337;DHT22;9294;51.106;7.028;2023-02-15T14:12:51;19.80;75.30
18337;DHT22;9294;51.106;7.028;2023-02-15T14:15:32;19.80;75.30
18337;DHT22;9294;51.106;7.028;2023-02-15T14:18:12;19.90;75.50
18337;DHT22;9294;51.106;7.028;2023-02-15T14:20:46;19.80;75.60
18337;DHT22;9294;51.106;7.028;2023-02-15T14:23:24;19.80;75.70
18337;DHT22;9294;51.106;7.028;2023-02-15T14:26:00;19.80;75.70
18337;DHT22;9294;51.106;7.028;2023-02-15T14:28:34;19.80;76.50
18337;DHT22;9294;51.106;7.028;2023-02-15T14:31:04;19.80;75.80
18337;DHT22;9294;51.106;7.028;2023-02-15T14:33:36;19.80;75.80
18337;DHT22;9294;51.106;7.028;2023-02-15T14:36:07;19.80;75.80
18337;DHT22;9294;51.106;7.028;2023-02-15T14:38:48;19.80;75.90
18337;DHT22;9294;51.106;7.028;2023-02-15T14:41:21;19.80;75.90
18337;DHT22;9294;51.106;7.028;2023-02-15T14:43:56;19.80;76.00
18337;DHT22;9294;51.106;7.028;2023-02-15T14:46:31;19.80;76.00
18337;DHT22;9294;51.106;7.028;2023-02-15T14:49:06;19.80;76.70
18337;DHT22;9294;51.106;7.028;2023-02-15T14:51:56;19.80;76.00
18337;DHT22;9294;51.106;7.028;2023-02-15T14:54:54;19.80;76.00
18337;DHT22;9294;51.106;7.028;2023-02-15T14:57:24;19.80;76.10
18337;DHT22;9294;51.106;7.028;2023-02-15T14:59:54;19.70;76.20
18337;DHT22;9294;51.106;7.028;2023-02-15T15:02:25;19.70;76.20
18337;DHT22;9294;51.106;7.028;2023-02-15T15:05:06;19.70;76.40
18337;DHT22;9294;51.106;7.028;2023-02-15T15:07:42;19.80;76.40
18337;DHT22;9294;51.106;7.028;2023-02-15T15:10:42;19.70;76.30
18337;DHT22;9294;51.106;7.028;2023-02-15T15:13:35;19.80;76.30
18337;DHT22;9294;51.106;7.028;2023-02-15T15:16:27;19.80;76.30
18337;DHT22;9294;51.106;7.028;2023-02-15T15:18:54;19.80;76.90
18337;DHT22;9294;51.106;7.028;2023-02-15T15:21:52;19.80;76.70
18337;DHT22;9294;51.106;7.028;2023-02-15T15:24:47;19.80;76.40
18337;DHT22;9294;51.106;7.028;2023-02-15T15:27:38;19.80;76.40
18337;DHT22;9294;51.106;7.028;2023-02-15T15:36:49;19.70;76.30
18337;DHT22;9294;51.106;7.028;2023-02-15T15:42:13;19.70;76.30
18337;DHT22;9294;51.106;7.028;2023-02-15T15:45:08;19.70;76.30
18337;DHT22;9294;51.106;7.028;2023-02-15T15:47:54;19.70;76.30
18337;DHT22;9294;51.106;7.028;2023-02-15T15:50:23;19.70;76.30
18337;DHT22;9294;51.106;7.028;2023-02-15T15:52:52;19.70;76.30
18337;DHT22;9294;51.106;7.028;2023-02-15T15:55:21;19.70;76.30
18337;DHT22;9294;51.106;7.028;2023-02-15T15:57:51;19.80;76.40
18337;DHT22;9294;51.106;7.028;2023-02-15T16:00:34;19.70;76.70
18337;DHT22;9294;51.106;7.028;2023-02-15T16:03:04;19.70;76.70
18337;DHT22;9294;51.106;7.028;2023-02-15T16:05:36;19.70;76.70
18337;DHT22;9294;51.106;7.028;2023-02-15T16:08:03;19.70;76.70
18337;DHT22;9294;51.106;7.028;2023-02-15T16:10:30;19.70;76.80
18337;DHT22;9294;51.106;7.028;2023-02-15T16:12:59;19.70;76.80
18337;DHT22;9294;51.106;7.028;2023-02-15T16:15:37;19.70;76.90
18337;DHT22;9294;51.106;7.028;2023-02-15T16:18:12;19.70;76.80
18337;DHT22;9294;51.106;7.028;2023-02-15T16:20:40;19.70;76.80
18337;DHT22;9294;51.106;7.028;2023-02-15T16:23:16;19.70;76.70
18337;DHT22;9294;51.106;7.028;2023-02-15T16:25:57;19.70;76.90
18337;DHT22;9294;51.106;7.028;2023-02-15T16:28:29;19.70;77.10
18337;DHT22;9294;51.106;7.028;2023-02-15T16:31:06;19.70;77.20
18337;DHT22;9294;51.106;7.028;2023-02-15T16:33:36;19.70;77.10